Latest Weather Observations for Ocean Reef

IDW60901

Issued at 1:01 pm WST Tuesday 21 February 2017 (issued every 10 minutes, with the page automatically refreshed every 10 minutes)

About weather observations | Map of Perth area stations | Latest observations for Perth area | Other Formats
Station Details ID: 009214 Name: OCEAN REEF Lat: -31.76 Lon: 115.73 Height: 10.0 m
Data from the previous 72 hours. | See also: Recent months at Ocean Reef
Date/Time
WST
Temp
°C
App
Temp
°C
Dew
Point
°C
Rel
Hum
%
Delta-T
°C
Wind Press
QNH
hPa
Press
MSL
hPa
Rain since
9am
mm
Dir  Spd
km/h
Gust
km/h
Spd
kts
Gust
kts
21/12:30pm - - - - - SSW 37 46 20 25 - - -
21/12:00pm - - - - - SW 33 44 18 24 - - -
21/11:30am - - - - - SSW 39 48 21 26 - - -
21/11:00am - - - - - SSW 41 52 22 28 - - -
21/10:30am - - - - - SW 43 52 23 28 - - -
21/10:00am - - - - - SW 44 54 24 29 - - -
21/09:30am - - - - - SSW 48 59 26 32 - - -
21/09:00am - - - - - SSW 46 59 25 32 - - -
21/08:30am - - - - - SW 46 56 25 30 - - -
21/08:00am - - - - - SW 39 50 21 27 - - -
21/07:30am - - - - - SW 39 50 21 27 - - -
21/07:00am - - - - - SW 43 56 23 30 - - -
21/06:30am - - - - - WSW 39 50 21 27 - - -
21/06:28am - - - - - WSW 41 50 22 27 - - -
21/06:00am - - - - - W 41 50 22 27 - - -
21/05:30am - - - - - W 37 50 20 27 - - -
21/05:00am - - - - - W 35 43 19 23 - - -
21/04:30am - - - - - W 32 37 17 20 - - -
21/04:00am - - - - - W 32 37 17 20 - - -
21/03:30am - - - - - WSW 33 37 18 20 - - -
21/03:00am - - - - - WSW 32 39 17 21 - - -
21/02:30am - - - - - WSW 32 37 17 20 - - -
21/02:00am - - - - - WSW 37 44 20 24 - - -
21/01:30am - - - - - WSW 33 41 18 22 - - -
21/01:00am - - - - - WSW 28 35 15 19 - - -
21/12:30am - - - - - SW 32 41 17 22 - - -
21/12:00am - - - - - WSW 32 37 17 20 - - -
 
Date/Time
WST
Temp
°C
App
Temp
°C
Dew
Point
°C
Rel
Hum
%
Delta-T
°C
Wind Press
QNH
hPa
Press
MSL
hPa
Rain since
9am
mm
Dir  Spd
km/h
Gust
km/h
Spd
kts
Gust
kts
20/11:30pm - - - - - SW 30 37 16 20 - - -
20/11:00pm - - - - - SW 30 37 16 20 - - -
20/10:30pm - - - - - SW 26 32 14 17 - - -
20/10:00pm - - - - - SW 32 39 17 21 - - -
20/09:30pm - - - - - SW 35 41 19 22 - - -
20/09:00pm - - - - - SSW 33 39 18 21 - - -
20/08:30pm - - - - - SSW 33 41 18 22 - - -
20/08:00pm - - - - - SSW 32 39 17 21 - - -
20/07:30pm - - - - - SSW 32 37 17 20 - - -
20/07:00pm - - - - - SSW 33 41 18 22 - - -
20/06:30pm - - - - - SW 35 41 19 22 - - -
20/06:00pm - - - - - SW 33 39 18 21 - - -
20/05:30pm - - - - - SW 35 41 19 22 - - -
20/05:00pm - - - - - SSW 33 44 18 24 - - -
20/04:30pm - - - - - SSW 32 39 17 21 - - -
20/04:00pm - - - - - SSW 30 37 16 20 - - -
20/03:30pm - - - - - SSW 30 33 16 18 - - -
20/03:00pm - - - - - SSW 32 37 17 20 - - -
20/02:30pm - - - - - SSW 33 37 18 20 - - -
20/02:00pm - - - - - SSW 33 39 18 21 - - -
20/01:30pm - - - - - SSW 30 37 16 20 - - -
20/01:00pm - - - - - SSW 28 33 15 18 - - -
20/12:30pm - - - - - SSW 32 37 17 20 - - -
20/12:00pm - - - - - SSW 32 35 17 19 - - -
20/11:30am - - - - - SSW 32 39 17 21 - - -
20/11:00am - - - - - SSW 35 41 19 22 - - -
20/10:30am - - - - - SSW 33 39 18 21 - - -
20/10:00am - - - - - SSW 32 35 17 19 - - -
20/09:30am - - - - - SSW 30 35 16 19 - - -
20/09:00am - - - - - S 32 39 17 21 - - -
20/08:30am - - - - - SSW 32 39 17 21 - - -
20/08:00am - - - - - SSW 33 39 18 21 - - -
20/07:30am - - - - - SSW 35 39 19 21 - - -
20/07:00am - - - - - SSW 37 46 20 25 - - -
20/06:30am - - - - - SSW 37 44 20 24 - - -
20/06:00am - - - - - SSW 35 41 19 22 - - -
20/05:30am - - - - - SSW 35 39 19 21 - - -
20/05:00am - - - - - SSW 28 33 15 18 - - -
20/04:30am - - - - - SSW 26 32 14 17 - - -
20/04:00am - - - - - SSW 26 30 14 16 - - -
20/03:30am - - - - - SSW 22 28 12 15 - - -
20/03:00am - - - - - S 22 30 12 16 - - -
20/02:30am - - - - - SSW 28 32 15 17 - - -
20/02:00am - - - - - SSW 28 32 15 17 - - -
20/01:30am - - - - - SSW 28 33 15 18 - - -
20/01:00am - - - - - SSW 28 33 15 18 - - -
20/12:30am - - - - - SSW 24 30 13 16 - - -
20/12:00am - - - - - SSW 19 24 10 13 - - -
 
Date/Time
WST
Temp
°C
App
Temp
°C
Dew
Point
°C
Rel
Hum
%
Delta-T
°C
Wind Press
QNH
hPa
Press
MSL
hPa
Rain since
9am
mm
Dir  Spd
km/h
Gust
km/h
Spd
kts
Gust
kts
19/11:30pm - - - - - SSW 22 26 12 14 - - -
19/11:00pm - - - - - SSW 28 30 15 16 - - -
19/10:30pm - - - - - SSW 28 33 15 18 - - -
19/10:00pm - - - - - SSW 26 32 14 17 - - -
19/09:30pm - - - - - SSW 24 30 13 16 - - -
19/09:00pm - - - - - SSW 20 28 11 15 - - -
19/08:30pm - - - - - SW 17 20 9 11 - - -
19/08:00pm - - - - - NW 17 19 9 10 - - -
19/07:30pm - - - - - NNW 17 19 9 10 - - -
19/07:00pm - - - - - NNW 11 13 6 7 - - -
19/06:30pm - - - - - NNW 11 13 6 7 - - -
19/06:00pm - - - - - NW 11 15 6 8 - - -
19/05:30pm - - - - - NW 13 17 7 9 - - -
19/05:00pm - - - - - NW 15 17 8 9 - - -
19/04:30pm - - - - - NNW 13 15 7 8 - - -
19/04:00pm - - - - - NNW 13 13 7 7 - - -
19/03:30pm - - - - - NNW 13 15 7 8 - - -
19/03:00pm - - - - - NW 15 19 8 10 - - -
19/02:30pm - - - - - NW 7 9 4 5 - - -
19/02:00pm - - - - - NW 7 9 4 5 - - -
19/01:30pm - - - - - NNW 9 13 5 7 - - -
19/01:00pm - - - - - NNW 9 11 5 6 - - -
19/12:30pm - - - - - NW 11 15 6 8 - - -
19/12:00pm - - - - - W 13 15 7 8 - - -
19/11:30am - - - - - WNW 17 19 9 10 - - -
19/11:00am - - - - - N 20 30 11 16 - - -
19/10:30am - - - - - NNE 20 30 11 16 - - -
19/10:00am - - - - - NE 22 30 12 16 - - -
19/09:30am - - - - - NE 24 37 13 20 - - -
19/09:00am - - - - - NE 30 43 16 23 - - -
19/08:30am - - - - - NE 28 41 15 22 - - -
19/08:00am - - - - - ENE 30 39 16 21 - - -
19/07:30am - - - - - ENE 28 39 15 21 - - -
19/07:00am - - - - - ENE 26 37 14 20 - - -
19/06:30am - - - - - ENE 22 30 12 16 - - -
19/06:00am - - - - - ENE 24 33 13 18 - - -
19/05:30am - - - - - ENE 26 35 14 19 - - -
19/05:00am - - - - - ENE 26 35 14 19 - - -
19/04:30am - - - - - ENE 22 30 12 16 - - -
19/04:00am - - - - - ENE 20 28 11 15 - - -
19/03:30am - - - - - ENE 22 33 12 18 - - -
19/03:00am - - - - - ENE 20 30 11 16 - - -
19/02:30am - - - - - ENE 20 28 11 15 - - -
19/02:00am - - - - - ENE 20 30 11 16 - - -
19/01:30am - - - - - E 22 32 12 17 - - -
19/01:00am - - - - - E 22 30 12 16 - - -
19/12:30am - - - - - E 20 30 11 16 - - -
19/12:00am - - - - - ENE 17 24 9 13 - - -
 
Date/Time
WST
Temp
°C
App
Temp
°C
Dew
Point
°C
Rel
Hum
%
Delta-T
°C
Wind Press
QNH
hPa
Press
MSL
hPa
Rain since
9am
mm
Dir  Spd
km/h
Gust
km/h
Spd
kts
Gust
kts
18/11:30pm - - - - - E 17 24 9 13 - - -
18/11:00pm - - - - - E 17 24 9 13 - - -
18/10:30pm - - - - - ESE 17 24 9 13 - - -
18/10:00pm - - - - - ESE 17 24 9 13 - - -
18/09:30pm - - - - - ESE 17 22 9 12 - - -
18/09:00pm - - - - - ESE 17 26 9 14 - - -
18/08:30pm - - - - - ESE 17 24 9 13 - - -
18/08:00pm - - - - - SE 15 19 8 10 - - -
18/07:30pm - - - - - ESE 13 19 7 10 - - -
18/07:00pm - - - - - ESE 17 26 9 14 - - -
18/06:30pm - - - - - ESE 17 26 9 14 - - -
18/06:00pm - - - - - ESE 17 24 9 13 - - -
18/05:30pm - - - - - ESE 19 32 10 17 - - -
18/05:00pm - - - - - ESE 17 28 9 15 - - -
18/04:30pm - - - - - E 17 26 9 14 - - -
18/04:00pm - - - - - ENE 15 26 8 14 - - -
18/03:30pm - - - - - E 17 32 9 17 - - -
18/03:00pm - - - - - E 19 32 10 17 - - -
18/02:30pm - - - - - E 20 30 11 16 - - -
18/02:00pm - - - - - ENE 24 35 13 19 - - -
18/01:30pm - - - - - ENE 26 35 14 19 - - -

Latest Capital City Observations: Canberra | Sydney | Melbourne | Brisbane | Adelaide | Perth | Hobart | Darwin

Other Formats:

Comma delimited format used in spreadsheet applications
http://www.bom.gov.au/fwo/IDW60901/IDW60901.94607.axf

JavaScript Object Notation format (JSON) in row-major order
http://www.bom.gov.au/fwo/IDW60901/IDW60901.94607.json